Time;durP1;ratioP1;P1;durP2;ratioP2;P2;SDS_P1;SDS_P2;PMS_P1;PMS_P2;Temp;Humidity;BMP_temperature;BMP_pressure;BME280_temperature;BME280_humidity;BME280_pressure;Samples;Min_cycle;Max_cycle;Signal;HPM_P1;HPM_P2
2023/07/02 00:02:01;;;;;;;3.70;1.88;;;17.60;99.90;;;;;;6085424;23;20022;-76
2023/07/02 00:04:27;;;;;;;3.72;1.48;;;17.60;99.90;;;;;;6057717;23;20021;-76
2023/07/02 00:06:53;;;;;;;5.18;2.00;;;17.60;99.90;;;;;;6060692;23;20020;-76
2023/07/02 00:09:18;;;;;;;2.90;1.80;;;17.70;99.90;;;;;;6062549;23;20033;-76
2023/07/02 00:11:45;;;;;;;4.78;2.45;;;17.60;99.90;;;;;;6056750;23;20014;-76
2023/07/02 00:14:11;;;;;;;5.35;1.77;;;17.60;99.90;;;;;;6061315;23;20482;-76
2023/07/02 00:16:38;;;;;;;3.15;1.90;;;17.50;99.90;;;;;;6059736;23;20018;-76
2023/07/02 00:19:04;;;;;;;3.25;1.88;;;17.50;99.90;;;;;;6057879;23;20313;-77
2023/07/02 00:21:33;;;;;;;2.78;1.88;;;17.50;99.90;;;;;;6061422;23;20005;-77
2023/07/02 00:24:01;;;;;;;3.78;1.90;;;17.50;99.90;;;;;;6085381;23;20076;-76
2023/07/02 00:26:27;;;;;;;2.08;1.52;;;17.50;99.90;;;;;;6059651;23;20721;-75
2023/07/02 00:28:53;;;;;;;3.72;2.85;;;17.50;99.90;;;;;;6083675;23;20013;-75
2023/07/02 00:31:19;;;;;;;4.22;2.08;;;17.60;99.90;;;;;;6086041;23;20436;-75
2023/07/02 00:33:44;;;;;;;5.38;1.77;;;17.50;99.90;;;;;;6056305;23;20057;-77
2023/07/02 00:36:14;;;;;;;3.78;2.67;;;17.50;99.90;;;;;;6062133;23;20064;-77
2023/07/02 00:38:41;;;;;;;5.68;2.50;;;17.60;99.90;;;;;;6082570;23;20025;-76
2023/07/02 00:41:07;;;;;;;6.05;2.60;;;17.40;99.90;;;;;;6055086;23;20010;-77
2023/07/02 00:43:33;;;;;;;6.43;2.63;;;17.60;99.90;;;;;;6085857;23;20021;-76
2023/07/02 00:45:59;;;;;;;5.47;2.22;;;17.60;99.90;;;;;;6061396;23;20018;-76
2023/07/02 00:48:24;;;;;;;6.00;3.15;;;17.50;99.90;;;;;;6085503;23;20025;-76
2023/07/02 00:50:50;;;;;;;6.43;2.97;;;17.50;99.90;;;;;;6082655;23;20076;-76
2023/07/02 00:53:15;;;;;;;5.18;2.83;;;17.50;99.90;;;;;;6056935;23;20412;-76
2023/07/02 00:55:41;;;;;;;7.38;2.55;;;17.40;99.90;;;;;;6062159;23;20396;-76
2023/07/02 00:58:08;;;;;;;2.30;1.58;;;17.30;99.90;;;;;;6056382;23;20242;-76
2023/07/02 01:00:33;;;;;;;3.10;2.17;;;17.40;99.90;;;;;;6057002;23;20467;-76
2023/07/02 01:02:59;;;;;;;4.25;2.20;;;17.40;99.90;;;;;;6084980;23;20041;-77
2023/07/02 01:05:32;;;;;;;5.05;2.70;;;17.40;99.90;;;;;;6080578;23;20070;-76
2023/07/02 01:07:57;;;;;;;7.10;4.15;;;17.40;99.90;;;;;;6084263;23;20088;-76
2023/07/02 01:10:23;;;;;;;6.50;2.88;;;17.60;99.90;;;;;;6061997;23;20044;-77
2023/07/02 01:12:48;;;;;;;5.70;2.80;;;17.40;99.90;;;;;;6082681;23;20117;-77
2023/07/02 01:15:14;;;;;;;6.70;2.80;;;17.40;99.90;;;;;;6059312;23;20417;-77
2023/07/02 01:17:41;;;;;;;5.60;2.50;;;17.40;99.90;;;;;;6061341;23;20021;-76
2023/07/02 01:20:08;;;;;;;5.28;2.78;;;17.40;99.90;;;;;;6058401;23;20014;-76
2023/07/02 01:22:33;;;;;;;5.88;2.72;;;17.40;99.90;;;;;;6082095;23;20227;-76
2023/07/02 01:24:59;;;;;;;5.80;3.08;;;17.40;99.90;;;;;;6058146;23;20059;-76
2023/07/02 01:27:26;;;;;;;7.70;3.15;;;17.40;99.90;;;;;;6055069;23;20018;-76
2023/07/02 01:29:52;;;;;;;5.45;3.10;;;17.30;99.90;;;;;;6063198;23;20090;-76
2023/07/02 01:32:18;;;;;;;7.57;3.30;;;17.30;99.90;;;;;;6082528;23;20456;-76
2023/07/02 01:34:49;;;;;;;5.80;3.20;;;17.30;99.90;;;;;;6056741;23;20468;-76
2023/07/02 01:37:16;;;;;;;7.25;2.67;;;17.30;99.90;;;;;;6063893;23;20121;-77
2023/07/02 01:39:42;;;;;;;5.22;3.50;;;17.20;99.90;;;;;;6085970;23;20467;-76
2023/07/02 01:42:18;;;;;;;6.60;2.85;;;17.10;99.90;;;;;;6055362;23;20026;-76
2023/07/02 01:44:44;;;;;;;;;;;17.10;99.90;;;;;;6036755;23;20340;-77
2023/07/02 01:47:09;;;;;;;7.35;3.08;;;17.00;99.90;;;;;;6059734;23;19928;-76
2023/07/02 01:49:36;;;;;;;5.47;3.20;;;17.00;99.90;;;;;;6057689;23;20098;-76
2023/07/02 01:52:01;;;;;;;7.47;3.15;;;16.90;99.90;;;;;;6059933;23;20448;-77
2023/07/02 01:54:27;;;;;;;7.20;3.20;;;16.80;99.90;;;;;;6061036;23;20145;-76
2023/07/02 01:56:55;;;;;;;7.15;3.17;;;16.80;99.90;;;;;;6054140;23;20025;-76
2023/07/02 01:59:21;;;;;;;9.57;3.33;;;16.70;99.90;;;;;;6063395;23;20467;-77
2023/07/02 02:01:47;;;;;;;8.30;3.90;;;16.60;99.90;;;;;;6064592;23;20059;-77
2023/07/02 02:04:12;;;;;;;6.63;3.55;;;16.70;99.90;;;;;;6059266;23;20006;-76
2023/07/02 02:06:38;;;;;;;8.85;4.10;;;16.70;99.90;;;;;;6062253;23;20010;-76
2023/07/02 02:09:04;;;;;;;8.10;3.40;;;16.80;99.90;;;;;;6059254;23;20013;-76
2023/07/02 02:11:30;;;;;;;5.85;2.88;;;16.70;99.90;;;;;;6060105;23;20006;-76
2023/07/02 02:13:56;;;;;;;10.23;3.60;;;16.60;99.90;;;;;;6061883;23;20515;-75
2023/07/02 02:16:22;;;;;;;11.30;3.92;;;16.70;99.90;;;;;;6062289;23;20449;-76
2023/07/02 02:18:47;;;;;;;13.88;5.03;;;16.70;99.90;;;;;;6082934;23;20081;-77
2023/07/02 02:21:13;;;;;;;7.35;3.78;;;16.70;99.90;;;;;;6087712;23;20061;-76
2023/07/02 02:23:38;;;;;;;8.80;3.83;;;16.60;99.90;;;;;;6084476;23;20060;-76
2023/07/02 02:26:04;;;;;;;12.30;5.22;;;16.60;99.90;;;;;;6062261;23;20444;-77
2023/07/02 02:28:30;;;;;;;11.52;4.63;;;16.60;99.90;;;;;;6081743;23;20089;-78
2023/07/02 02:30:55;;;;;;;9.40;4.85;;;16.60;99.90;;;;;;6083234;23;20006;-78
2023/07/02 02:33:21;;;;;;;9.55;4.55;;;16.50;99.90;;;;;;6061219;23;20060;-79
2023/07/02 02:35:48;;;;;;;8.35;4.53;;;16.60;99.90;;;;;;6059710;23;20018;-78
2023/07/02 02:38:14;;;;;;;14.30;5.65;;;16.50;99.90;;;;;;6061323;23;20116;-78
2023/07/02 02:40:40;;;;;;;14.65;6.35;;;16.60;99.90;;;;;;6062684;23;20006;-78
2023/07/02 02:43:05;;;;;;;11.23;4.60;;;16.50;99.90;;;;;;6034072;23;20344;-78
2023/07/02 02:45:31;;;;;;;12.10;5.82;;;16.60;99.90;;;;;;6085529;23;20016;-78
2023/07/02 02:47:56;;;;;;;9.57;5.20;;;16.60;99.90;;;;;;6060156;23;20472;-78
2023/07/02 02:50:22;;;;;;;13.95;6.57;;;16.50;99.90;;;;;;6080921;23;20089;-78
2023/07/02 02:52:48;;;;;;;12.65;5.32;;;16.60;99.90;;;;;;6086161;23;20033;-78
2023/07/02 02:55:13;;;;;;;12.55;5.40;;;16.70;99.90;;;;;;6062093;23;20021;-78
2023/07/02 02:57:39;;;;;;;16.85;6.20;;;16.60;99.90;;;;;;6112530;23;20022;-78
2023/07/02 03:00:06;;;;;;;14.88;7.05;;;16.60;99.90;;;;;;6081649;23;20021;-77
2023/07/02 03:02:32;;;;;;;8.90;5.72;;;16.60;99.90;;;;;;6060295;23;20092;-77
2023/07/02 03:05:02;;;;;;;18.50;7.68;;;16.60;99.90;;;;;;6084340;23;20018;-76
2023/07/02 03:07:28;;;;;;;12.38;7.18;;;16.60;99.90;;;;;;6059418;23;20014;-76
2023/07/02 03:09:54;;;;;;;13.07;7.03;;;16.60;99.90;;;;;;6055799;23;20448;-77
2023/07/02 03:12:19;;;;;;;23.67;7.72;;;16.60;99.90;;;;;;6085352;23;20021;-77
2023/07/02 03:14:45;;;;;;;17.48;6.78;;;16.50;99.90;;;;;;6082780;23;20018;-76
2023/07/02 03:17:10;;;;;;;12.70;6.45;;;16.60;99.90;;;;;;6061936;23;20077;-77
2023/07/02 03:19:36;;;;;;;13.30;6.97;;;16.50;99.90;;;;;;6061519;23;20348;-77
2023/07/02 03:22:01;;;;;;;12.48;5.85;;;16.60;99.90;;;;;;6060176;23;20006;-77
2023/07/02 03:24:27;;;;;;;14.18;5.20;;;16.50;99.90;;;;;;6086119;23;20017;-77
2023/07/02 03:26:53;;;;;;;18.20;6.07;;;16.50;99.90;;;;;;6085589;23;20016;-77
2023/07/02 03:29:20;;;;;;;15.13;7.18;;;16.60;99.90;;;;;;6080788;23;20010;-77
2023/07/02 03:31:46;;;;;;;12.68;7.15;;;16.60;99.90;;;;;;6055970;23;20452;-77
2023/07/02 03:34:12;;;;;;;16.52;7.82;;;16.60;99.90;;;;;;6058893;23;20010;-77
2023/07/02 03:36:37;;;;;;;15.13;7.28;;;16.50;99.90;;;;;;6061199;23;20028;-77
2023/07/02 03:39:04;;;;;;;15.40;7.05;;;16.60;99.90;;;;;;6057355;23;20053;-77
2023/07/02 03:41:29;;;;;;;19.63;7.95;;;16.60;99.90;;;;;;6034551;23;20010;-76
2023/07/02 03:43:55;;;;;;;14.80;7.10;;;16.60;99.90;;;;;;6084176;23;20006;-76
2023/07/02 03:46:20;;;;;;;16.08;8.70;;;16.50;99.90;;;;;;6060782;23;20387;-76
2023/07/02 03:48:46;;;;;;;14.50;8.73;;;16.50;99.90;;;;;;6059730;23;20177;-77
2023/07/02 03:51:14;;;;;;;12.38;7.10;;;16.60;99.90;;;;;;6063141;23;20313;-76
2023/07/02 03:53:43;;;;;;;15.50;8.48;;;16.60;99.90;;;;;;6057207;23;20854;-77
2023/07/02 03:56:08;;;;;;;18.95;8.48;;;16.60;99.90;;;;;;6061130;23;20563;-78
2023/07/02 03:58:34;;;;;;;21.90;10.75;;;16.60;99.90;;;;;;6085568;23;20045;-76
2023/07/02 04:01:00;;;;;;;20.83;9.88;;;16.40;99.90;;;;;;6058204;23;20010;-77
2023/07/02 04:03:25;;;;;;;17.27;9.18;;;16.50;99.90;;;;;;6060059;23;20392;-77
2023/07/02 04:05:51;;;;;;;21.48;10.70;;;16.50;99.90;;;;;;6059217;23;20042;-77
2023/07/02 04:08:17;;;;;;;21.20;10.50;;;16.50;99.90;;;;;;6056521;23;20014;-77
2023/07/02 04:10:42;;;;;;;19.50;9.13;;;16.50;99.90;;;;;;6084557;23;20009;-76
2023/07/02 04:13:08;;;;;;;14.70;8.30;;;16.50;99.90;;;;;;6056963;23;20022;-77
2023/07/02 04:15:34;;;;;;;13.80;8.65;;;16.50;99.90;;;;;;6082470;23;20444;-77
2023/07/02 04:18:00;;;;;;;19.67;8.98;;;16.50;99.90;;;;;;6056971;23;20425;-77
2023/07/02 04:20:25;;;;;;;19.58;10.63;;;16.50;99.90;;;;;;6036136;23;20014;-77
2023/07/02 04:22:51;;;;;;;19.02;9.75;;;16.50;99.90;;;;;;6063179;23;20013;-77
2023/07/02 04:25:16;;;;;;;18.25;9.13;;;16.50;99.90;;;;;;6080888;23;20021;-77
2023/07/02 04:27:43;;;;;;;23.40;10.40;;;16.50;99.90;;;;;;6060122;23;20014;-77
2023/07/02 04:30:09;;;;;;;19.80;9.65;;;16.50;99.90;;;;;;6037323;23;20014;-77
2023/07/02 04:32:41;;;;;;;16.75;8.73;;;16.60;99.90;;;;;;6058709;23;20014;-76
2023/07/02 04:35:07;;;;;;;21.52;9.25;;;16.50;99.90;;;;;;6060963;23;20275;-77
2023/07/02 04:37:33;;;;;;;22.10;10.70;;;16.60;99.90;;;;;;6062466;23;20391;-77
2023/07/02 04:39:59;;;;;;;18.15;9.38;;;16.60;99.90;;;;;;6057555;23;20093;-77
2023/07/02 04:42:30;;;;;;;16.85;8.15;;;16.60;99.90;;;;;;6058536;23;20017;-77
2023/07/02 04:44:56;;;;;;;28.33;12.98;;;16.60;99.90;;;;;;6085212;23;20015;-77
2023/07/02 04:47:21;;;;;;;21.63;9.35;;;16.60;99.90;;;;;;6058747;23;20021;-77
2023/07/02 04:49:47;;;;;;;22.00;9.73;;;16.60;99.90;;;;;;6059785;23;20086;-77
2023/07/02 04:52:13;;;;;;;18.88;9.77;;;16.70;99.90;;;;;;6061056;23;20017;-76
2023/07/02 04:54:38;;;;;;;20.63;8.40;;;16.70;99.90;;;;;;6056219;23;20014;-77
2023/07/02 04:57:04;;;;;;;19.33;9.98;;;16.60;99.90;;;;;;6059248;23;20476;-77
2023/07/02 04:59:29;;;;;;;18.08;8.63;;;16.70;99.90;;;;;;6083814;23;20048;-77
2023/07/02 05:01:55;;;;;;;18.25;9.43;;;16.70;99.90;;;;;;6057952;23;20010;-76
2023/07/02 05:04:21;;;;;;;19.25;10.93;;;16.70;99.90;;;;;;6062846;23;20018;-77
2023/07/02 05:06:46;;;;;;;23.65;12.32;;;16.70;99.90;;;;;;6058689;23;20468;-77
2023/07/02 05:09:12;;;;;;;20.25;9.82;;;16.80;99.90;;;;;;6059661;23;20033;-77
2023/07/02 05:11:37;;;;;;;24.25;10.18;;;16.80;99.90;;;;;;6057607;23;20021;-76
2023/07/02 05:14:03;;;;;;;22.85;11.55;;;16.80;99.90;;;;;;6057837;23;20053;-76
2023/07/02 05:16:28;;;;;;;20.90;11.73;;;16.80;99.90;;;;;;6059458;23;20010;-76
2023/07/02 05:18:54;;;;;;;28.27;14.05;;;16.90;99.90;;;;;;6081691;23;20017;-76
2023/07/02 05:21:20;;;;;;;17.50;10.55;;;17.00;99.90;;;;;;6036649;23;20033;-76
2023/07/02 05:23:45;;;;;;;21.75;10.77;;;17.10;99.90;;;;;;6110874;23;20010;-75
2023/07/02 05:26:11;;;;;;;25.25;13.73;;;17.20;99.90;;;;;;6033501;23;20088;-75
2023/07/02 05:28:36;;;;;;;18.27;9.88;;;17.30;99.90;;;;;;6059358;23;20013;-76
2023/07/02 05:31:02;;;;;;;24.13;10.85;;;17.50;99.90;;;;;;6059727;23;20049;-76
2023/07/02 05:33:27;;;;;;;23.38;12.98;;;17.70;99.90;;;;;;6034695;23;20025;-76
2023/07/02 05:35:53;;;;;;;20.75;9.05;;;17.70;99.90;;;;;;6038705;23;20018;-76
2023/07/02 05:38:19;;;;;;;13.15;6.50;;;17.70;99.90;;;;;;6085806;23;20022;-76
2023/07/02 05:40:45;;;;;;;22.67;12.57;;;17.70;99.90;;;;;;6058464;23;20021;-77
2023/07/02 05:43:10;;;;;;;24.58;12.88;;;17.80;99.90;;;;;;6063460;23;20038;-76
2023/07/02 05:45:36;;;;;;;23.75;12.50;;;17.70;99.90;;;;;;6083706;23;20021;-76
2023/07/02 05:48:01;;;;;;;25.05;13.70;;;17.90;99.90;;;;;;6064057;23;20018;-76
2023/07/02 05:50:27;;;;;;;24.90;12.38;;;18.00;99.90;;;;;;6084586;23;20022;-76
2023/07/02 05:52:52;;;;;;;30.77;11.50;;;18.10;99.90;;;;;;6085386;23;20447;-76
2023/07/02 05:55:18;;;;;;;28.55;12.57;;;18.20;99.90;;;;;;6063040;23;20045;-76
2023/07/02 05:57:44;;;;;;;24.60;10.25;;;18.20;99.90;;;;;;6059902;23;20075;-76
2023/07/02 06:00:10;;;;;;;25.55;13.52;;;18.30;99.90;;;;;;6061264;23;20452;-76
2023/07/02 06:02:36;;;;;;;30.00;12.95;;;18.30;99.90;;;;;;6060645;23;20458;-76
2023/07/02 06:05:01;;;;;;;25.85;12.82;;;18.30;99.90;;;;;;6081788;23;20018;-76
2023/07/02 06:07:27;;;;;;;24.48;12.82;;;18.50;99.90;;;;;;6063068;23;20009;-75
2023/07/02 06:09:53;;;;;;;23.77;13.23;;;18.60;99.90;;;;;;6057555;23;20343;-75
2023/07/02 06:12:20;;;;;;;32.33;13.07;;;18.90;99.90;;;;;;6082498;23;20014;-76
2023/07/02 06:14:46;;;;;;;19.67;9.25;;;18.90;99.90;;;;;;6084830;23;20104;-76
2023/07/02 06:17:11;;;;;;;22.10;10.05;;;19.00;99.90;;;;;;6059273;23;20422;-76
2023/07/02 06:19:37;;;;;;;20.75;9.32;;;19.30;99.90;;;;;;6060346;23;20436;-77
2023/07/02 06:22:03;;;;;;;21.63;11.98;;;19.60;99.90;;;;;;6086411;23;20006;-77
2023/07/02 06:24:28;;;;;;;27.92;13.07;;;19.60;99.90;;;;;;6060552;23;20014;-76
2023/07/02 06:26:54;;;;;;;26.60;14.10;;;19.60;99.90;;;;;;6063392;23;20708;-76
2023/07/02 06:29:21;;;;;;;27.15;11.52;;;20.00;99.90;;;;;;6060274;23;20021;-76
2023/07/02 06:31:46;;;;;;;23.50;12.02;;;20.10;99.90;;;;;;6084986;23;20006;-76
2023/07/02 06:34:12;;;;;;;19.90;10.05;;;20.20;99.90;;;;;;6039193;23;20017;-76
2023/07/02 06:36:38;;;;;;;26.00;12.95;;;20.40;99.90;;;;;;6082917;23;20018;-77
2023/07/02 06:39:03;;;;;;;23.38;12.52;;;20.50;99.90;;;;;;6037739;23;20010;-77
2023/07/02 06:41:29;;;;;;;25.90;13.35;;;20.60;99.90;;;;;;6085316;23;20049;-76
2023/07/02 06:43:55;;;;;;;23.38;12.93;;;20.90;99.90;;;;;;6082894;23;20358;-76
2023/07/02 06:46:20;;;;;;;24.83;13.57;;;21.20;99.90;;;;;;6037352;23;20317;-76
2023/07/02 06:48:46;;;;;;;23.08;11.85;;;21.10;99.90;;;;;;6037846;23;20003;-77
2023/07/02 06:51:14;;;;;;;25.80;12.02;;;21.10;99.90;;;;;;6061779;23;20010;-77
2023/07/02 06:53:41;;;;;;;25.17;11.48;;;21.50;99.90;;;;;;6038926;23;20045;-77
2023/07/02 06:56:08;;;;;;;23.77;11.90;;;21.70;99.90;;;;;;6060298;23;20413;-77
2023/07/02 06:58:33;;;;;;;27.15;11.65;;;21.80;99.90;;;;;;6060093;23;20018;-77
2023/07/02 07:00:59;;;;;;;21.75;10.75;;;21.70;99.90;;;;;;6085610;23;20507;-77
2023/07/02 07:03:24;;;;;;;22.75;11.65;;;21.60;99.90;;;;;;6055035;23;20385;-77
2023/07/02 07:05:50;;;;;;;23.35;12.80;;;21.70;99.10;;;;;;6039107;23;20615;-76
2023/07/02 07:08:15;;;;;;;22.88;10.80;;;22.00;99.60;;;;;;6081534;23;20033;-76
2023/07/02 07:10:41;;;;;;;24.20;12.32;;;22.00;98.50;;;;;;6058001;23;20006;-76
2023/07/02 07:13:06;;;;;;;30.52;12.70;;;22.40;99.90;;;;;;6061611;23;20081;-76
2023/07/02 07:15:35;;;;;;;25.35;10.25;;;22.80;99.40;;;;;;6032299;23;20018;-77
2023/07/02 07:18:01;;;;;;;20.60;9.73;;;22.70;99.60;;;;;;6058543;23;20014;-77
2023/07/02 07:20:27;;;;;;;22.27;11.40;;;22.70;97.20;;;;;;6063622;23;20068;-77
2023/07/02 07:22:52;;;;;;;21.83;9.02;;;22.60;98.40;;;;;;6043361;23;20547;-77
2023/07/02 07:25:18;;;;;;;22.77;10.77;;;22.90;95.70;;;;;;6059400;23;20018;-77
2023/07/02 07:27:43;;;;;;;22.38;11.38;;;22.90;95.80;;;;;;6058267;23;20347;-76
2023/07/02 07:30:09;;;;;;;19.52;9.90;;;23.10;96.00;;;;;;6034446;23;20006;-77
2023/07/02 07:32:35;;;;;;;20.88;6.93;;;23.00;94.30;;;;;;6060952;23;20085;-77
2023/07/02 07:35:00;;;;;;;17.33;9.25;;;23.20;93.80;;;;;;6062260;23;20524;-77
2023/07/02 07:37:26;;;;;;;19.38;10.10;;;23.60;92.80;;;;;;6055707;23;20026;-77
2023/07/02 07:39:52;;;;;;;18.92;9.95;;;23.60;92.40;;;;;;6063303;23;20065;-76
2023/07/02 07:42:17;;;;;;;20.70;9.82;;;23.70;92.60;;;;;;6057305;23;20029;-76
2023/07/02 07:44:45;;;;;;;25.83;12.02;;;24.10;92.30;;;;;;6059422;23;20044;-78
2023/07/02 07:47:11;;;;;;;23.75;10.55;;;24.10;87.50;;;;;;6037222;23;20506;-77
2023/07/02 07:49:36;;;;;;;23.42;10.85;;;24.10;90.00;;;;;;6036211;23;20037;-76
2023/07/02 07:52:03;;;;;;;16.75;8.25;;;23.90;90.20;;;;;;6036870;23;20408;-76
2023/07/02 07:54:29;;;;;;;20.23;9.68;;;24.10;90.40;;;;;;6082021;23;20028;-77
2023/07/02 07:56:54;;;;;;;13.90;6.93;;;24.20;90.00;;;;;;6081220;23;20014;-76
2023/07/02 07:59:20;;;;;;;15.70;6.50;;;24.10;84.90;;;;;;6060309;23;20060;-75
2023/07/02 08:01:46;;;;;;;24.42;9.73;;;23.70;82.40;;;;;;6108570;23;20017;-78
2023/07/02 08:04:12;;;;;;;23.17;10.52;;;23.60;85.10;;;;;;6060368;23;20012;-78
2023/07/02 08:06:37;;;;;;;25.15;9.45;;;23.70;84.60;;;;;;6083339;23;20006;-78
2023/07/02 08:09:03;;;;;;;11.98;5.60;;;23.60;83.30;;;;;;6058516;23;20010;-78
2023/07/02 08:11:29;;;;;;;26.48;10.80;;;23.60;82.60;;;;;;6059298;23;20009;-78
2023/07/02 08:13:55;;;;;;;18.25;9.05;;;23.40;80.70;;;;;;6038613;23;20356;-77
2023/07/02 08:16:20;;;;;;;20.75;9.35;;;23.50;82.20;;;;;;6081274;23;20021;-77
2023/07/02 08:18:46;;;;;;;16.52;7.70;;;23.60;82.90;;;;;;6059164;23;20018;-77
2023/07/02 08:21:11;;;;;;;17.02;9.02;;;23.40;78.60;;;;;;6058989;23;20148;-78
2023/07/02 08:23:37;;;;;;;16.85;7.55;;;23.50;80.60;;;;;;6080035;23;20014;-77
2023/07/02 08:26:03;;;;;;;18.05;8.82;;;23.50;79.70;;;;;;6061381;23;20021;-78
2023/07/02 08:28:29;;;;;;;18.40;8.43;;;23.50;78.90;;;;;;6060075;23;20024;-78
2023/07/02 08:30:54;;;;;;;21.92;9.25;;;23.40;75.20;;;;;;6061550;23;20071;-78
2023/07/02 08:33:20;;;;;;;14.55;7.93;;;23.50;79.60;;;;;;6059082;23;20474;-78
2023/07/02 08:35:46;;;;;;;23.58;9.73;;;23.70;77.50;;;;;;6057321;23;20020;-78
2023/07/02 08:38:11;;;;;;;12.40;6.43;;;23.80;77.20;;;;;;6035173;23;20022;-78
2023/07/02 08:40:37;;;;;;;15.68;7.70;;;24.10;76.00;;;;;;6057338;23;20041;-78
2023/07/02 08:43:02;;;;;;;13.50;5.60;;;24.10;72.70;;;;;;6083378;23;20013;-78
2023/07/02 08:45:28;;;;;;;14.90;7.35;;;24.10;74.20;;;;;;6060414;23;20072;-78
2023/07/02 08:47:56;;;;;;;18.10;7.80;;;24.20;73.70;;;;;;6054996;23;20089;-78
2023/07/02 08:50:22;;;;;;;18.95;8.10;;;24.20;74.70;;;;;;6083132;23;20018;-78
2023/07/02 08:52:47;;;;;;;14.73;7.95;;;24.50;75.10;;;;;;6110640;23;20090;-78
2023/07/02 08:55:13;;;;;;;14.25;8.27;;;24.70;74.20;;;;;;6055273;23;20065;-78
2023/07/02 08:57:40;;;;;;;14.90;7.45;;;25.20;74.30;;;;;;6059306;23;20081;-76
2023/07/02 09:00:10;;;;;;;13.27;6.57;;;25.10;70.70;;;;;;6057855;23;20385;-77
2023/07/02 09:02:35;;;;;;;9.70;5.40;;;25.30;71.10;;;;;;6055222;23;20045;-78
2023/07/02 09:05:02;;;;;;;15.88;7.10;;;25.30;68.90;;;;;;6085830;23;20524;-78
2023/07/02 09:07:27;;;;;;;15.38;7.22;;;25.40;68.90;;;;;;6057487;23;20356;-78
2023/07/02 09:09:53;;;;;;;15.82;7.28;;;25.50;66.40;;;;;;6057762;23;20018;-76
2023/07/02 09:12:24;;;;;;;14.55;7.70;;;25.70;67.40;;;;;;6061550;23;20508;-78
2023/07/02 09:14:55;;;;;;;12.60;7.45;;;25.90;68.20;;;;;;6035685;23;20022;-78
2023/07/02 09:17:20;;;;;;;14.85;7.95;;;26.00;68.20;;;;;;6056513;23;20112;-78
2023/07/02 09:19:50;;;;;;;17.95;8.23;;;26.00;67.90;;;;;;6061493;23;20375;-78
2023/07/02 09:22:16;;;;;;;12.13;6.20;;;26.20;66.40;;;;;;6042917;23;20022;-78
2023/07/02 09:24:42;;;;;;;12.93;6.82;;;26.30;66.00;;;;;;6051883;23;20002;-78
2023/07/02 09:27:07;;;;;;;18.77;7.47;;;26.00;65.80;;;;;;6060034;23;20007;-78
2023/07/02 09:29:33;;;;;;;13.23;7.05;;;25.90;65.20;;;;;;6078101;23;20018;-78
2023/07/02 09:32:03;;;;;;;14.85;6.57;;;25.70;65.90;;;;;;6052952;23;20408;-79
2023/07/02 09:34:30;;;;;;;18.25;6.40;;;25.90;66.60;;;;;;6053306;23;20530;-79
2023/07/02 09:36:56;;;;;;;14.57;6.45;;;25.90;64.70;;;;;;6080351;23;20014;-78
2023/07/02 09:39:26;;;;;;;14.20;6.78;;;25.90;63.50;;;;;;6075416;23;20384;-79
2023/07/02 09:41:51;;;;;;;18.20;7.90;;;26.00;63.60;;;;;;6056329;23;20003;-78
2023/07/02 09:44:18;;;;;;;12.63;6.63;;;26.20;63.90;;;;;;6053261;23;20022;-79
2023/07/02 09:46:51;;;;;;;11.00;5.18;;;26.50;64.80;;;;;;6077318;23;20452;-79
2023/07/02 09:49:17;;;;;;;13.80;7.38;;;26.50;63.00;;;;;;6030427;23;20015;-79
2023/07/02 09:51:42;;;;;;;16.20;7.20;;;26.60;62.20;;;;;;6055818;23;20329;-79
2023/07/02 09:54:08;;;;;;;7.65;4.28;;;26.70;63.10;;;;;;6049878;23;20006;-79
2023/07/02 09:56:34;;;;;;;11.40;7.50;;;26.80;62.70;;;;;;6082330;23;20007;-79
2023/07/02 09:58:59;;;;;;;17.15;6.70;;;26.90;63.60;;;;;;6079747;23;20019;-79
2023/07/02 10:01:25;;;;;;;15.82;7.85;;;26.90;62.90;;;;;;6078594;23;20580;-79
2023/07/02 10:03:50;;;;;;;17.92;8.45;;;27.00;62.10;;;;;;6049276;23;20041;-78
2023/07/02 10:06:16;;;;;;;16.52;6.15;;;26.80;61.00;;;;;;6078300;23;20014;-78
2023/07/02 10:08:52;;;;;;;18.98;7.32;;;26.60;60.90;;;;;;6031468;23;20332;-79
2023/07/02 10:11:18;;;;;;;10.75;6.45;;;26.50;60.60;;;;;;6059808;23;20021;-78
2023/07/02 10:13:43;;;;;;;15.68;6.10;;;26.30;60.30;;;;;;6060207;23;20014;-79
2023/07/02 10:16:09;;;;;;;12.02;6.35;;;26.10;59.80;;;;;;6082750;23;20071;-78
2023/07/02 10:18:35;;;;;;;9.57;5.18;;;25.90;60.30;;;;;;6055506;23;20014;-78
2023/07/02 10:21:12;;;;;;;17.52;7.35;;;25.70;60.60;;;;;;6061088;23;20029;-78
2023/07/02 10:23:37;;;;;;;12.48;7.05;;;25.60;61.30;;;;;;6086071;23;20456;-77
2023/07/02 10:26:17;;;;;;;7.07;3.72;;;25.60;62.50;;;;;;6061021;23;20068;-77
2023/07/02 10:28:42;;;;;;;14.75;7.35;;;25.40;61.20;;;;;;6041164;23;20467;-78
2023/07/02 10:31:19;;;;;;;16.42;7.30;;;25.40;61.50;;;;;;6055680;23;20018;-80
2023/07/02 10:33:45;;;;;;;15.48;8.15;;;25.10;62.30;;;;;;6055165;23;20110;-79
2023/07/02 10:36:20;;;;;;;14.38;8.25;;;25.10;62.70;;;;;;6080538;23;20732;-79
2023/07/02 10:38:46;;;;;;;15.77;6.20;;;25.00;62.90;;;;;;6038772;23;20021;-78
2023/07/02 10:41:12;;;;;;;12.95;5.72;;;25.10;62.20;;;;;;6060704;23;20448;-78
2023/07/02 10:43:38;;;;;;;12.48;5.70;;;25.30;60.90;;;;;;6058757;23;20053;-78
2023/07/02 10:46:04;;;;;;;15.57;7.53;;;25.50;59.80;;;;;;6064228;23;20021;-78
2023/07/02 10:48:30;;;;;;;16.27;7.63;;;25.80;61.30;;;;;;6061279;23;20048;-81
2023/07/02 10:50:56;;;;;;;11.05;6.05;;;26.10;61.00;;;;;;6085340;23;20010;-79
2023/07/02 10:53:21;;;;;;;17.75;6.50;;;26.20;60.50;;;;;;6059506;23;20096;-79
2023/07/02 10:55:55;;;;;;;13.80;7.20;;;26.20;59.30;;;;;;6059593;23;20065;-78
2023/07/02 10:58:20;;;;;;;13.43;7.43;;;26.20;58.80;;;;;;6062301;23;20069;-80
2023/07/02 11:00:47;;;;;;;18.27;7.38;;;26.50;57.30;;;;;;6084378;23;20026;-79
2023/07/02 11:03:25;;;;;;;14.45;7.15;;;26.50;58.20;;;;;;6037949;23;20040;-80
2023/07/02 11:05:51;;;;;;;13.88;5.63;;;26.70;58.10;;;;;;6057196;23;20351;-80
2023/07/02 11:08:16;;;;;;;15.13;7.20;;;26.40;57.30;;;;;;6085651;23;20018;-79
2023/07/02 11:10:42;;;;;;;13.05;6.15;;;26.60;58.30;;;;;;6060631;23;20014;-80
2023/07/02 11:13:17;;;;;;;7.40;3.03;;;26.70;58.10;;;;;;6058300;23;20061;-78
2023/07/02 11:15:45;;;;;;;10.95;5.70;;;26.70;56.90;;;;;;6061368;23;20006;-79
2023/07/02 11:18:15;;;;;;;14.15;7.68;;;26.60;56.50;;;;;;6060907;23;20327;-80
2023/07/02 11:20:42;;;;;;;14.52;6.30;;;26.40;57.40;;;;;;6035066;23;20621;-80
2023/07/02 11:23:22;;;;;;;16.73;7.57;;;26.90;57.40;;;;;;6085770;23;20014;-80
2023/07/02 11:26:03;;;;;;;13.13;6.05;;;27.20;57.20;;;;;;6083583;23;20425;-80
2023/07/02 11:28:30;;;;;;;13.43;6.82;;;27.30;57.70;;;;;;6086696;23;20010;-80
2023/07/02 11:30:57;;;;;;;15.32;6.68;;;27.80;57.60;;;;;;6038700;23;20018;-80
2023/07/02 11:33:36;;;;;;;12.85;6.38;;;27.70;56.60;;;;;;6059461;23;20014;-81
2023/07/02 11:36:01;;;;;;;14.55;5.85;;;28.20;57.10;;;;;;6060537;23;20424;-79
2023/07/02 11:38:27;;;;;;;13.90;6.50;;;28.50;56.20;;;;;;6058977;23;20022;-79
2023/07/02 11:40:52;;;;;;;17.27;7.32;;;28.60;56.20;;;;;;6084488;23;20009;-79
2023/07/02 11:43:18;;;;;;;10.63;5.95;;;28.60;54.60;;;;;;6062203;23;20013;-80
2023/07/02 11:45:44;;;;;;;12.02;5.57;;;28.60;56.00;;;;;;6062761;23;20104;-79
2023/07/02 11:48:09;;;;;;;14.32;6.40;;;28.50;55.80;;;;;;6060016;23;20096;-80
2023/07/02 11:50:35;;;;;;;14.27;6.78;;;28.60;55.20;;;;;;6060969;23;20010;-80
2023/07/02 11:53:00;;;;;;;10.18;5.53;;;28.50;54.50;;;;;;6063084;23;20021;-79
2023/07/02 11:55:26;;;;;;;12.90;6.50;;;28.40;54.60;;;;;;6056811;23;20336;-78
2023/07/02 11:57:51;;;;;;;12.82;6.05;;;28.30;55.50;;;;;;6062175;23;20014;-78
2023/07/02 12:00:17;;;;;;;10.82;5.88;;;28.10;55.50;;;;;;6087228;23;20020;-79
2023/07/02 12:02:43;;;;;;;10.55;5.22;;;28.20;55.60;;;;;;6082368;23;20344;-79
2023/07/02 12:05:08;;;;;;;10.52;6.00;;;28.40;55.70;;;;;;6062681;23;20448;-79
2023/07/02 12:07:34;;;;;;;15.43;6.70;;;28.70;54.50;;;;;;6061925;23;20010;-79
2023/07/02 12:10:00;;;;;;;12.95;5.43;;;28.80;54.20;;;;;;6064598;23;20010;-79
2023/07/02 12:12:25;;;;;;;10.63;5.00;;;28.80;53.50;;;;;;6056531;23;20017;-78
2023/07/02 12:14:51;;;;;;;8.05;4.93;;;28.40;51.10;;;;;;6082403;23;20014;-80
2023/07/02 12:17:16;;;;;;;14.80;5.63;;;28.20;51.40;;;;;;6061671;23;20301;-80
2023/07/02 12:19:42;;;;;;;10.80;4.22;;;28.20;51.70;;;;;;6083118;23;20037;-80
2023/07/02 12:22:08;;;;;;;10.35;5.82;;;28.30;50.80;;;;;;6062822;23;20013;-80
2023/07/02 12:24:33;;;;;;;14.90;6.05;;;28.40;52.50;;;;;;6061448;23;20010;-80
2023/07/02 12:26:59;;;;;;;11.60;4.90;;;28.20;51.10;;;;;;6055469;23;20349;-80
2023/07/02 12:29:24;;;;;;;13.95;5.78;;;28.50;51.40;;;;;;6061786;23;20021;-80
2023/07/02 12:31:50;;;;;;;14.70;6.20;;;28.60;51.20;;;;;;6058777;23;20068;-80
2023/07/02 12:34:16;;;;;;;13.20;5.55;;;28.70;50.60;;;;;;6055753;23;20028;-80